createdAt,value
2023-04-27T00:01:14.514Z,7.05
2023-04-27T00:03:41.488Z,8.10
2023-04-27T00:06:08.525Z,8.90
2023-04-27T00:08:35.466Z,10.85
2023-04-27T00:11:01.993Z,6.80
2023-04-27T00:13:28.803Z,7.00
2023-04-27T00:15:55.711Z,8.88
2023-04-27T00:18:22.439Z,6.05
2023-04-27T00:20:49.952Z,7.85
2023-04-27T00:23:16.586Z,8.38
2023-04-27T00:25:43.257Z,5.90
2023-04-27T00:28:09.915Z,10.27
2023-04-27T00:30:36.571Z,7.50
2023-04-27T00:33:03.450Z,6.93
2023-04-27T00:35:30.716Z,11.05
2023-04-27T00:37:58.174Z,11.60
2023-04-27T00:40:24.816Z,7.85
2023-04-27T00:42:52.245Z,8.63
2023-04-27T00:45:18.780Z,8.23
2023-04-27T00:47:45.970Z,8.82
2023-04-27T00:50:12.750Z,7.10
2023-04-27T00:52:39.675Z,8.35
2023-04-27T00:55:06.469Z,6.40
2023-04-27T00:57:33.487Z,8.57
2023-04-27T01:00:00.290Z,9.73
2023-04-27T01:02:28.471Z,9.43
2023-04-27T01:04:55.837Z,7.10
2023-04-27T01:07:26.841Z,9.05
2023-04-27T01:09:53.477Z,9.10
2023-04-27T01:12:20.187Z,10.43
2023-04-27T01:14:48.331Z,12.00
2023-04-27T01:17:14.814Z,9.23
2023-04-27T01:19:41.436Z,10.25
2023-04-27T01:22:08.324Z,7.00
2023-04-27T01:24:35.053Z,6.88
2023-04-27T01:27:05.030Z,7.93
2023-04-27T01:29:31.824Z,6.28
2023-04-27T01:31:58.438Z,5.05
2023-04-27T01:34:27.765Z,7.47
2023-04-27T01:36:54.297Z,7.30
2023-04-27T01:39:21.532Z,6.18
2023-04-27T01:41:48.222Z,7.72
2023-04-27T01:44:14.848Z,6.90
2023-04-27T01:46:41.703Z,7.93
2023-04-27T01:49:08.511Z,11.70
2023-04-27T01:51:34.966Z,10.43
2023-04-27T01:54:01.742Z,7.97
2023-04-27T01:56:28.411Z,7.47
2023-04-27T01:58:55.849Z,6.28
2023-04-27T02:01:22.899Z,10.05
2023-04-27T02:03:50.039Z,7.28
2023-04-27T02:06:16.795Z,9.52
2023-04-27T02:08:43.376Z,7.18
2023-04-27T02:11:09.941Z,7.30
2023-04-27T02:13:36.544Z,6.18
2023-04-27T02:16:05.191Z,9.32
2023-04-27T02:18:36.338Z,10.18
2023-04-27T02:21:07.908Z,8.70
2023-04-27T02:23:36.818Z,6.57
2023-04-27T02:26:03.739Z,10.02
2023-04-27T02:28:31.060Z,9.07
2023-04-27T02:30:58.872Z,7.85
2023-04-27T02:33:25.537Z,8.43
2023-04-27T02:35:52.037Z,7.32
2023-04-27T02:38:18.758Z,9.88
2023-04-27T02:40:45.470Z,9.63
2023-04-27T02:43:12.117Z,7.07
2023-04-27T02:45:38.862Z,7.85
2023-04-27T02:48:05.965Z,10.70
2023-04-27T02:50:33.837Z,7.72
2023-04-27T02:53:00.562Z,6.47
2023-04-27T02:55:27.680Z,6.70
2023-04-27T02:57:54.587Z,7.47
2023-04-27T03:00:21.235Z,6.72
2023-04-27T03:02:47.903Z,8.57
2023-04-27T03:05:14.618Z,8.57
2023-04-27T03:07:41.262Z,7.03
2023-04-27T03:10:08.065Z,7.28
2023-04-27T03:12:34.754Z,7.80
2023-04-27T03:15:01.396Z,6.57
2023-04-27T03:17:28.523Z,10.30
2023-04-27T03:19:55.580Z,8.23
2023-04-27T03:22:23.902Z,7.70
2023-04-27T03:24:50.555Z,7.60
2023-04-27T03:27:17.116Z,6.90
2023-04-27T03:29:43.791Z,9.13
2023-04-27T03:32:11.629Z,7.07
2023-04-27T03:34:38.284Z,11.85
2023-04-27T03:37:06.397Z,7.57
2023-04-27T03:39:36.698Z,9.73
2023-04-27T03:42:03.617Z,6.38
2023-04-27T03:44:31.791Z,10.75
2023-04-27T03:46:58.402Z,9.07
2023-04-27T03:49:24.994Z,7.78
2023-04-27T03:51:51.979Z,8.73
2023-04-27T03:54:18.630Z,11.82
2023-04-27T03:56:45.871Z,10.30
2023-04-27T03:59:12.567Z,9.65
2023-04-27T04:01:44.007Z,9.98
2023-04-27T04:04:11.418Z,10.80
2023-04-27T04:06:37.988Z,10.18
2023-04-27T04:09:04.841Z,8.07
2023-04-27T04:11:31.752Z,9.52
2023-04-27T04:14:00.141Z,8.15
2023-04-27T04:16:27.032Z,8.15
2023-04-27T04:18:53.769Z,10.43
2023-04-27T04:21:21.294Z,10.18
2023-04-27T04:23:48.715Z,10.68
2023-04-27T04:26:15.481Z,11.60
2023-04-27T04:28:42.352Z,8.75
2023-04-27T04:31:10.018Z,11.90
2023-04-27T04:33:36.797Z,8.80
2023-04-27T04:36:04.363Z,12.27
2023-04-27T04:38:31.198Z,8.55
2023-04-27T04:40:59.230Z,10.05
2023-04-27T04:43:25.916Z,12.88
2023-04-27T04:45:52.736Z,12.73
2023-04-27T04:48:20.359Z,10.18
2023-04-27T04:50:47.215Z,11.23
2023-04-27T04:53:13.850Z,9.55
2023-04-27T04:55:41.141Z,13.82
2023-04-27T04:58:09.058Z,8.45
2023-04-27T05:00:35.560Z,9.52
2023-04-27T05:03:02.450Z,10.60
2023-04-27T05:05:29.417Z,10.18
2023-04-27T05:07:56.133Z,10.95
2023-04-27T05:10:22.610Z,12.77
2023-04-27T05:12:49.253Z,7.82
2023-04-27T05:15:16.008Z,10.32
2023-04-27T05:17:42.560Z,9.13
2023-04-27T05:20:09.910Z,9.40
2023-04-27T05:22:36.883Z,12.68
2023-04-27T05:25:04.586Z,9.55
2023-04-27T05:27:31.491Z,13.60
2023-04-27T05:29:58.096Z,10.55
2023-04-27T05:32:24.658Z,9.15
2023-04-27T05:34:51.304Z,11.25
2023-04-27T05:37:17.835Z,9.45
2023-04-27T05:39:44.328Z,12.05
2023-04-27T05:42:13.421Z,8.13
2023-04-27T05:44:39.938Z,9.00
2023-04-27T05:47:06.579Z,10.88
2023-04-27T05:49:33.192Z,8.77
2023-04-27T05:51:59.969Z,7.80
2023-04-27T05:54:27.590Z,8.68
2023-04-27T05:56:54.337Z,11.15
2023-04-27T05:59:21.865Z,11.68
2023-04-27T06:01:48.497Z,10.57
2023-04-27T06:04:15.317Z,9.13
2023-04-27T06:06:42.413Z,9.57
2023-04-27T06:09:09.057Z,9.27
2023-04-27T06:11:35.769Z,10.13
2023-04-27T06:14:02.463Z,8.70
2023-04-27T06:16:29.095Z,10.82
2023-04-27T06:18:55.674Z,9.95
2023-04-27T06:21:22.217Z,9.45
2023-04-27T06:23:48.757Z,8.40
2023-04-27T06:26:15.669Z,7.25
2023-04-27T06:28:42.208Z,8.85
2023-04-27T06:31:08.833Z,6.63
2023-04-27T06:33:35.981Z,11.30
2023-04-27T06:36:02.756Z,10.32
2023-04-27T06:38:29.340Z,10.35
2023-04-27T06:40:57.064Z,8.80
2023-04-27T06:43:23.600Z,9.68
2023-04-27T06:45:50.522Z,11.45
2023-04-27T06:48:17.536Z,6.78
2023-04-27T06:50:44.236Z,8.32
2023-04-27T06:53:10.848Z,9.05
2023-04-27T06:55:37.537Z,9.75
2023-04-27T06:58:04.490Z,10.10
2023-04-27T07:00:31.486Z,7.63
2023-04-27T07:02:58.179Z,7.00
2023-04-27T07:05:24.838Z,8.18
2023-04-27T07:07:51.401Z,8.25
2023-04-27T07:10:18.250Z,13.00
2023-04-27T07:12:44.977Z,7.97
2023-04-27T07:15:11.623Z,9.18
2023-04-27T07:17:38.310Z,8.20
2023-04-27T07:20:06.337Z,9.45
2023-04-27T07:22:33.369Z,11.50
2023-04-27T07:25:00.175Z,12.77
2023-04-27T07:27:26.779Z,6.75
2023-04-27T07:29:53.447Z,7.60
2023-04-27T07:32:20.238Z,9.27
2023-04-27T07:34:53.717Z,10.70
2023-04-27T07:37:21.186Z,9.20
2023-04-27T07:39:48.735Z,8.18
2023-04-27T07:42:15.494Z,7.28
2023-04-27T07:44:42.733Z,9.15
2023-04-27T07:47:09.474Z,11.43
2023-04-27T07:49:37.460Z,10.80
2023-04-27T07:52:05.561Z,10.32
2023-04-27T07:54:32.041Z,9.80
2023-04-27T07:56:58.655Z,10.07
2023-04-27T07:59:25.296Z,11.18
2023-04-27T08:01:51.848Z,10.57
2023-04-27T08:04:19.333Z,13.25
2023-04-27T08:06:47.059Z,13.18
2023-04-27T08:09:14.099Z,11.50
2023-04-27T08:11:41.040Z,11.45
2023-04-27T08:14:13.453Z,10.88
2023-04-27T08:16:43.361Z,13.35
2023-04-27T08:19:10.532Z,13.18
2023-04-27T08:21:38.014Z,11.77
2023-04-27T08:24:06.459Z,14.13
2023-04-27T08:26:33.411Z,12.60
2023-04-27T08:29:00.036Z,12.52
2023-04-27T08:31:26.859Z,11.98
2023-04-27T08:33:53.710Z,13.93
2023-04-27T08:36:29.271Z,12.48
2023-04-27T08:38:55.936Z,13.02
2023-04-27T08:41:23.414Z,13.75
2023-04-27T08:43:50.563Z,13.55
2023-04-27T08:46:21.182Z,16.92
2023-04-27T08:48:49.989Z,14.27
2023-04-27T08:51:17.248Z,14.30
2023-04-27T08:53:50.735Z,12.75
2023-04-27T08:56:18.058Z,15.45
2023-04-27T08:58:44.798Z,13.20
2023-04-27T09:01:11.559Z,14.63
2023-04-27T09:03:38.615Z,14.73
2023-04-27T09:06:06.429Z,11.82
2023-04-27T09:08:43.065Z,16.50
2023-04-27T09:11:09.661Z,13.63
2023-04-27T09:13:36.947Z,13.82
2023-04-27T09:16:03.798Z,16.60
2023-04-27T09:18:34.087Z,16.27
2023-04-27T09:21:01.123Z,15.73
2023-04-27T09:23:28.021Z,17.73
2023-04-27T09:25:56.621Z,13.70
2023-04-27T09:28:23.678Z,15.02
2023-04-27T09:30:57.136Z,17.52
2023-04-27T09:33:24.600Z,15.77
2023-04-27T09:35:51.322Z,17.40
2023-04-27T09:38:21.785Z,15.45
2023-04-27T09:40:49.108Z,15.55
2023-04-27T09:43:16.023Z,14.55
2023-04-27T09:45:43.084Z,18.48
2023-04-27T09:48:10.335Z,15.07
2023-04-27T09:50:38.216Z,17.13
2023-04-27T09:53:12.828Z,17.13
2023-04-27T09:55:50.502Z,13.00
2023-04-27T09:58:30.122Z,16.75
2023-04-27T10:01:11.396Z,12.27
2023-04-27T10:03:59.773Z,11.20
2023-04-27T10:06:45.006Z,11.80
2023-04-27T10:09:12.710Z,10.77
2023-04-27T10:11:44.185Z,11.50
2023-04-27T10:14:18.351Z,14.48
2023-04-27T10:16:48.427Z,14.13
2023-04-27T10:19:15.413Z,13.60
2023-04-27T10:21:57.050Z,15.18
2023-04-27T10:24:36.671Z,14.18
2023-04-27T10:27:07.347Z,15.20
2023-04-27T10:29:41.914Z,13.48
2023-04-27T10:32:11.985Z,13.15
2023-04-27T10:34:40.675Z,11.95
2023-04-27T10:37:08.048Z,13.85
2023-04-27T10:39:47.017Z,10.70
2023-04-27T10:42:26.376Z,11.05
2023-04-27T10:44:54.880Z,18.73
2023-04-27T10:47:22.090Z,13.32
2023-04-27T10:49:48.600Z,13.57
2023-04-27T10:52:15.153Z,13.80
2023-04-27T10:54:45.471Z,14.23
2023-04-27T10:57:12.632Z,13.70
2023-04-27T10:59:50.257Z,16.70
2023-04-27T11:02:17.539Z,13.25
2023-04-27T11:04:44.816Z,13.57
2023-04-27T11:07:11.766Z,13.93
2023-04-27T11:09:39.212Z,12.60
2023-04-27T11:12:12.270Z,14.70
2023-04-27T11:14:38.847Z,13.32
2023-04-27T11:17:05.471Z,16.27
2023-04-27T11:19:32.370Z,14.63
2023-04-27T11:22:03.198Z,15.13
2023-04-27T11:24:29.873Z,13.02
2023-04-27T11:26:57.250Z,13.05
2023-04-27T11:29:23.920Z,12.60
2023-04-27T11:31:51.733Z,15.68
2023-04-27T11:34:19.723Z,16.33
2023-04-27T11:37:06.811Z,13.70
2023-04-27T11:39:41.781Z,16.33
2023-04-27T11:42:24.670Z,12.98
2023-04-27T11:45:01.464Z,13.18
2023-04-27T11:47:28.920Z,16.63
2023-04-27T11:49:56.509Z,12.95
2023-04-27T11:52:27.694Z,11.77
2023-04-27T11:54:56.358Z,13.98
2023-04-27T11:57:29.679Z,15.50
2023-04-27T11:59:58.742Z,13.77
2023-04-27T12:02:25.531Z,13.18
2023-04-27T12:04:52.439Z,11.45
2023-04-27T12:07:19.601Z,20.15
2023-04-27T12:09:47.467Z,12.98
2023-04-27T12:12:14.678Z,15.30
2023-04-27T12:14:41.599Z,16.65
2023-04-27T12:17:08.143Z,13.63
2023-04-27T12:19:34.969Z,13.68
2023-04-27T12:22:04.497Z,13.63
2023-04-27T12:24:31.512Z,17.08
2023-04-27T12:26:58.376Z,14.68
2023-04-27T12:29:24.957Z,18.20
2023-04-27T12:31:53.715Z,17.63
2023-04-27T12:34:20.601Z,13.70
2023-04-27T12:36:47.172Z,14.13
2023-04-27T12:39:14.885Z,11.68
2023-04-27T12:41:42.998Z,16.58
2023-04-27T12:44:09.626Z,12.10
2023-04-27T12:46:36.230Z,14.43
2023-04-27T12:49:02.954Z,13.23
2023-04-27T12:51:29.507Z,14.02
2023-04-27T12:54:00.905Z,13.00
2023-04-27T12:56:28.136Z,11.43
2023-04-27T12:58:55.355Z,13.60
2023-04-27T13:01:24.916Z,12.32
2023-04-27T13:03:53.336Z,10.40
2023-04-27T13:06:20.231Z,12.57
2023-04-27T13:08:47.020Z,12.60
2023-04-27T13:11:13.552Z,14.15
2023-04-27T13:13:41.154Z,11.98
2023-04-27T13:16:07.704Z,14.98
2023-04-27T13:18:35.200Z,12.32
2023-04-27T13:21:02.771Z,11.05
2023-04-27T13:23:30.059Z,10.90
2023-04-27T13:25:56.676Z,13.40
2023-04-27T13:28:23.242Z,9.55
2023-04-27T13:30:49.715Z,12.27
2023-04-27T13:33:23.050Z,11.98
2023-04-27T13:35:53.408Z,11.85
2023-04-27T13:38:20.476Z,12.13
2023-04-27T13:40:47.055Z,10.55
2023-04-27T13:43:13.555Z,12.77
2023-04-27T13:45:42.568Z,11.40
2023-04-27T13:48:09.202Z,12.30
2023-04-27T13:50:37.290Z,9.77
2023-04-27T13:53:03.866Z,11.88
2023-04-27T13:55:30.711Z,10.75
2023-04-27T13:57:57.346Z,9.77
2023-04-27T14:00:24.234Z,12.75
2023-04-27T14:02:51.316Z,10.30
2023-04-27T14:05:18.112Z,10.88
2023-04-27T14:07:44.756Z,8.80
2023-04-27T14:10:11.501Z,10.00
2023-04-27T14:12:38.085Z,9.95
2023-04-27T14:15:04.923Z,9.70
2023-04-27T14:17:31.426Z,11.00
2023-04-27T14:19:58.051Z,11.50
2023-04-27T14:22:24.794Z,10.88
2023-04-27T14:24:56.463Z,10.77
2023-04-27T14:27:23.030Z,10.25
2023-04-27T14:29:50.090Z,10.02
2023-04-27T14:32:16.790Z,10.05
2023-04-27T14:34:43.424Z,11.38
2023-04-27T14:37:10.240Z,11.13
2023-04-27T14:39:36.737Z,9.52
2023-04-27T14:42:04.286Z,10.57
2023-04-27T14:44:31.590Z,9.75
2023-04-27T14:46:58.333Z,12.10
2023-04-27T14:49:25.019Z,11.45
2023-04-27T14:51:51.721Z,10.07
2023-04-27T14:54:18.236Z,10.05
2023-04-27T14:56:45.039Z,11.43
2023-04-27T14:59:11.619Z,10.52
2023-04-27T15:01:38.472Z,9.48
2023-04-27T15:04:05.420Z,9.10
2023-04-27T15:06:33.322Z,9.68
2023-04-27T15:08:59.862Z,10.25
2023-04-27T15:11:26.834Z,11.27
2023-04-27T15:13:53.502Z,9.25
2023-04-27T15:16:20.548Z,11.57
2023-04-27T15:18:47.248Z,10.43
2023-04-27T15:21:13.844Z,11.10
2023-04-27T15:23:40.490Z,9.65
2023-04-27T15:26:07.140Z,9.73
2023-04-27T15:28:34.096Z,11.73
2023-04-27T15:31:02.689Z,12.80
2023-04-27T15:33:29.346Z,11.38
2023-04-27T15:35:58.890Z,9.93
2023-04-27T15:38:26.306Z,8.98
2023-04-27T15:40:53.084Z,8.68
2023-04-27T15:43:19.753Z,9.20
2023-04-27T15:45:46.532Z,11.32
2023-04-27T15:48:13.833Z,10.13
2023-04-27T15:50:40.544Z,10.00
2023-04-27T15:53:07.144Z,10.35
2023-04-27T15:55:33.897Z,14.27
2023-04-27T15:58:00.422Z,12.05
2023-04-27T16:00:27.346Z,9.65
2023-04-27T16:02:54.853Z,9.73
2023-04-27T16:05:22.809Z,11.05
2023-04-27T16:07:49.360Z,11.43
2023-04-27T16:10:16.098Z,9.45
2023-04-27T16:12:42.597Z,10.50
2023-04-27T16:15:11.554Z,10.57
2023-04-27T16:17:38.479Z,10.38
2023-04-27T16:20:08.473Z,11.32
2023-04-27T16:22:36.089Z,11.43
2023-04-27T16:25:02.926Z,8.30
2023-04-27T16:27:29.868Z,11.10
2023-04-27T16:29:56.745Z,9.63
2023-04-27T16:32:23.686Z,9.15
2023-04-27T16:34:50.567Z,12.60
2023-04-27T16:37:17.254Z,13.23
2023-04-27T16:39:43.865Z,10.32
2023-04-27T16:42:10.682Z,11.20
2023-04-27T16:44:37.868Z,10.23
2023-04-27T16:47:04.512Z,9.38
2023-04-27T16:49:31.216Z,10.50
2023-04-27T16:51:57.900Z,9.23
2023-04-27T16:54:24.481Z,8.32
2023-04-27T16:56:52.292Z,11.07
2023-04-27T16:59:20.268Z,8.02
2023-04-27T17:01:46.976Z,10.77
2023-04-27T17:04:13.806Z,11.63
2023-04-27T17:06:41.146Z,10.57
2023-04-27T17:09:08.286Z,10.80
2023-04-27T17:11:35.013Z,9.75
2023-04-27T17:14:01.622Z,8.35
2023-04-27T17:16:28.458Z,9.65
2023-04-27T17:18:55.509Z,11.20
2023-04-27T17:21:24.868Z,10.90
2023-04-27T17:23:53.192Z,9.25
2023-04-27T17:26:21.674Z,10.32
2023-04-27T17:28:48.876Z,11.77
2023-04-27T17:31:17.495Z,8.25
2023-04-27T17:33:44.168Z,13.75
2023-04-27T17:36:11.317Z,8.88
2023-04-27T17:38:37.963Z,10.88
2023-04-27T17:41:04.711Z,10.07
2023-04-27T17:43:31.267Z,9.77
2023-04-27T17:45:57.977Z,8.63
2023-04-27T17:48:24.660Z,8.85
2023-04-27T17:50:51.401Z,10.52
2023-04-27T17:53:17.928Z,8.70
2023-04-27T17:55:48.010Z,11.65
2023-04-27T17:58:15.516Z,9.35
2023-04-27T18:00:42.821Z,10.65
2023-04-27T18:03:10.085Z,10.88
2023-04-27T18:05:37.026Z,9.30
2023-04-27T18:08:03.972Z,8.80
2023-04-27T18:10:30.526Z,8.02
2023-04-27T18:12:57.052Z,9.80
2023-04-27T18:15:23.775Z,9.52
2023-04-27T18:17:50.565Z,8.82
2023-04-27T18:20:17.164Z,10.20
2023-04-27T18:22:43.741Z,8.52
2023-04-27T18:25:10.562Z,10.65
2023-04-27T18:27:39.910Z,9.95
2023-04-27T18:30:06.840Z,10.70
2023-04-27T18:32:34.193Z,9.63
2023-04-27T18:35:00.960Z,8.52
2023-04-27T18:37:27.725Z,10.27
2023-04-27T18:39:54.426Z,9.00
2023-04-27T18:42:21.094Z,9.27
2023-04-27T18:44:49.518Z,9.98
2023-04-27T18:47:16.038Z,8.18
2023-04-27T18:49:42.640Z,8.60
2023-04-27T18:52:11.589Z,8.43
2023-04-27T18:54:38.468Z,10.48
2023-04-27T18:57:05.170Z,9.32
2023-04-27T18:59:31.728Z,11.10
2023-04-27T19:01:58.401Z,8.68
2023-04-27T19:04:26.123Z,9.90
2023-04-27T19:06:52.756Z,11.30
2023-04-27T19:09:19.302Z,11.43
2023-04-27T19:11:49.414Z,14.25
2023-04-27T19:14:19.836Z,12.10
2023-04-27T19:16:46.894Z,9.48
2023-04-27T19:19:13.632Z,9.45
2023-04-27T19:21:41.942Z,10.10
2023-04-27T19:24:08.822Z,9.43
2023-04-27T19:26:35.719Z,8.80
2023-04-27T19:29:02.422Z,11.07
2023-04-27T19:31:28.993Z,9.57
2023-04-27T19:33:55.804Z,9.20
2023-04-27T19:38:57.457Z,11.77
2023-04-27T19:41:27.011Z,9.40
2023-04-27T19:43:53.605Z,8.35
2023-04-27T19:46:20.353Z,10.57
2023-04-27T19:48:46.893Z,10.73
2023-04-27T19:51:13.652Z,9.65
2023-04-27T19:53:40.150Z,12.07
2023-04-27T19:56:07.483Z,11.13
2023-04-27T19:58:35.756Z,6.90
2023-04-27T20:01:02.671Z,13.40
2023-04-27T20:03:29.352Z,9.40
2023-04-27T20:05:56.529Z,11.60
2023-04-27T20:08:23.314Z,9.02
2023-04-27T20:10:49.904Z,9.13
2023-04-27T20:13:16.533Z,8.63
2023-04-27T20:15:43.387Z,12.50
2023-04-27T20:18:09.950Z,12.05
2023-04-27T20:20:37.534Z,8.38
2023-04-27T20:23:04.106Z,10.45
2023-04-27T20:25:30.704Z,10.18
2023-04-27T20:27:57.337Z,9.23
2023-04-27T20:30:24.085Z,9.85
2023-04-27T20:32:50.646Z,12.45
2023-04-27T20:35:17.466Z,11.02
2023-04-27T20:37:44.270Z,11.93
2023-04-27T20:40:14.519Z,13.30
2023-04-27T20:42:42.602Z,11.30
2023-04-27T20:45:11.398Z,11.30
2023-04-27T20:47:38.199Z,10.68
2023-04-27T20:50:05.455Z,12.35
2023-04-27T20:52:34.414Z,8.98
2023-04-27T20:55:01.536Z,9.75
2023-04-27T20:57:28.564Z,8.75
2023-04-27T20:59:55.375Z,16.25
2023-04-27T21:02:22.178Z,12.90
2023-04-27T21:04:48.768Z,9.77
2023-04-27T21:07:15.588Z,10.50
2023-04-27T21:09:42.173Z,10.88
2023-04-27T21:12:09.043Z,16.80
2023-04-27T21:14:35.995Z,13.52
2023-04-27T21:17:02.803Z,13.80
2023-04-27T21:19:29.416Z,11.35
2023-04-27T21:21:56.767Z,13.13
2023-04-27T21:24:23.471Z,16.45
2023-04-27T21:26:50.386Z,12.77
2023-04-27T21:29:17.121Z,13.20
2023-04-27T21:31:43.784Z,13.32
2023-04-27T21:34:10.538Z,13.35
2023-04-27T21:36:37.521Z,11.00
2023-04-27T21:39:04.098Z,12.73
2023-04-27T21:41:30.964Z,13.02
2023-04-27T21:43:57.546Z,15.38
2023-04-27T21:46:24.265Z,17.08
2023-04-27T21:48:51.071Z,14.65
2023-04-27T21:51:17.672Z,17.23
2023-04-27T21:53:44.115Z,13.35
2023-04-27T21:56:13.779Z,12.82
2023-04-27T21:58:40.365Z,14.95
2023-04-27T22:01:06.981Z,14.27
2023-04-27T22:03:33.691Z,15.48
2023-04-27T22:06:00.413Z,13.65
2023-04-27T22:08:27.058Z,12.70
2023-04-27T22:10:53.739Z,15.30
2023-04-27T22:13:20.418Z,14.30
2023-04-27T22:15:47.548Z,16.63
2023-04-27T22:18:14.975Z,12.65
2023-04-27T22:20:42.497Z,14.45
2023-04-27T22:23:09.543Z,16.85
2023-04-27T22:25:36.456Z,16.00
2023-04-27T22:28:10.350Z,16.55
2023-04-27T22:30:40.370Z,13.98
2023-04-27T22:33:07.454Z,13.45
2023-04-27T22:35:34.316Z,14.82
2023-04-27T22:38:01.312Z,17.67
2023-04-27T22:40:27.895Z,13.77
2023-04-27T22:42:59.196Z,14.43
2023-04-27T22:45:25.888Z,15.38
2023-04-27T22:47:52.515Z,14.35
2023-04-27T22:50:19.269Z,14.23
2023-04-27T22:52:45.871Z,15.02
2023-04-27T22:55:13.076Z,15.77
2023-04-27T22:57:39.860Z,13.82
2023-04-27T23:00:09.038Z,17.25
2023-04-27T23:02:36.027Z,16.40
2023-04-27T23:05:03.862Z,17.27
2023-04-27T23:07:30.552Z,15.35
2023-04-27T23:09:57.441Z,17.77
2023-04-27T23:12:27.011Z,15.88
2023-04-27T23:14:53.695Z,14.77
2023-04-27T23:17:22.745Z,15.80
2023-04-27T23:19:49.766Z,14.88
2023-04-27T23:22:16.414Z,15.50
2023-04-27T23:24:43.105Z,17.25
2023-04-27T23:27:09.561Z,18.63
2023-04-27T23:29:36.203Z,16.23
2023-04-27T23:32:04.432Z,14.43
2023-04-27T23:34:34.003Z,17.27
2023-04-27T23:37:00.976Z,12.48
2023-04-27T23:39:27.920Z,16.00
2023-04-27T23:41:54.522Z,14.85
2023-04-27T23:44:21.505Z,16.42
2023-04-27T23:46:48.258Z,17.83
2023-04-27T23:49:14.757Z,13.15
2023-04-27T23:51:41.568Z,16.48
2023-04-27T23:54:08.155Z,21.85
2023-04-27T23:56:34.681Z,14.30
2023-04-27T23:59:01.512Z,17.52
